sensor_id;sensor_type;location;lat;lon;timestamp;P1;durP1;ratioP1;P2;durP2;ratioP2
19923;SDS011;10124;53.068;18.224;2022-12-29T00:01:52;20.80;;;11.23;;
19923;SDS011;10124;53.068;18.224;2022-12-29T00:04:20;21.97;;;12.27;;
19923;SDS011;10124;53.068;18.224;2022-12-29T00:06:48;19.23;;;12.10;;
19923;SDS011;10124;53.068;18.224;2022-12-29T00:09:17;25.50;;;14.40;;
19923;SDS011;10124;53.068;18.224;2022-12-29T00:11:45;23.27;;;14.20;;
19923;SDS011;10124;53.068;18.224;2022-12-29T00:14:13;25.63;;;15.17;;
19923;SDS011;10124;53.068;18.224;2022-12-29T00:16:59;26.20;;;14.60;;
19923;SDS011;10124;53.068;18.224;2022-12-29T00:19:28;26.73;;;14.40;;
19923;SDS011;10124;53.068;18.224;2022-12-29T00:22:14;26.80;;;16.17;;
19923;SDS011;10124;53.068;18.224;2022-12-29T00:25:02;22.67;;;15.20;;
19923;SDS011;10124;53.068;18.224;2022-12-29T00:27:36;27.23;;;15.53;;
19923;SDS011;10124;53.068;18.224;2022-12-29T00:30:29;27.07;;;15.40;;
19923;SDS011;10124;53.068;18.224;2022-12-29T00:33:25;24.10;;;16.37;;
19923;SDS011;10124;53.068;18.224;2022-12-29T00:38:51;21.10;;;15.70;;
19923;SDS011;10124;53.068;18.224;2022-12-29T00:41:40;25.13;;;14.57;;
19923;SDS011;10124;53.068;18.224;2022-12-29T00:44:37;31.40;;;15.57;;
19923;SDS011;10124;53.068;18.224;2022-12-29T00:47:05;25.30;;;15.53;;
19923;SDS011;10124;53.068;18.224;2022-12-29T00:49:33;28.60;;;16.33;;
19923;SDS011;10124;53.068;18.224;2022-12-29T00:54:30;28.20;;;16.63;;
19923;SDS011;10124;53.068;18.224;2022-12-29T00:57:03;23.43;;;15.33;;
19923;SDS011;10124;53.068;18.224;2022-12-29T00:59:39;31.67;;;16.00;;
19923;SDS011;10124;53.068;18.224;2022-12-29T01:02:09;24.10;;;15.33;;
19923;SDS011;10124;53.068;18.224;2022-12-29T01:04:37;24.13;;;15.33;;
19923;SDS011;10124;53.068;18.224;2022-12-29T01:07:05;28.87;;;15.77;;
19923;SDS011;10124;53.068;18.224;2022-12-29T01:09:33;29.33;;;16.20;;
19923;SDS011;10124;53.068;18.224;2022-12-29T01:16:01;26.60;;;15.87;;
19923;SDS011;10124;53.068;18.224;2022-12-29T01:18:30;22.17;;;15.23;;
19923;SDS011;10124;53.068;18.224;2022-12-29T01:20:59;21.77;;;15.50;;
19923;SDS011;10124;53.068;18.224;2022-12-29T01:23:28;29.17;;;16.60;;
19923;SDS011;10124;53.068;18.224;2022-12-29T01:25:56;27.83;;;15.60;;
19923;SDS011;10124;53.068;18.224;2022-12-29T01:28:24;27.53;;;16.83;;
19923;SDS011;10124;53.068;18.224;2022-12-29T01:30:52;30.50;;;15.30;;
19923;SDS011;10124;53.068;18.224;2022-12-29T01:33:20;24.90;;;15.43;;
19923;SDS011;10124;53.068;18.224;2022-12-29T01:35:48;21.87;;;14.50;;
19923;SDS011;10124;53.068;18.224;2022-12-29T01:38:16;24.90;;;15.90;;
19923;SDS011;10124;53.068;18.224;2022-12-29T01:40:44;27.13;;;15.47;;
19923;SDS011;10124;53.068;18.224;2022-12-29T01:43:13;26.23;;;15.30;;
19923;SDS011;10124;53.068;18.224;2022-12-29T01:45:44;29.57;;;16.10;;
19923;SDS011;10124;53.068;18.224;2022-12-29T01:48:17;29.43;;;15.83;;
19923;SDS011;10124;53.068;18.224;2022-12-29T01:50:46;25.67;;;14.70;;
19923;SDS011;10124;53.068;18.224;2022-12-29T01:53:25;27.70;;;15.37;;
19923;SDS011;10124;53.068;18.224;2022-12-29T01:55:57;22.33;;;14.33;;
19923;SDS011;10124;53.068;18.224;2022-12-29T01:58:30;25.77;;;14.67;;
19923;SDS011;10124;53.068;18.224;2022-12-29T02:01:02;27.00;;;13.93;;
19923;SDS011;10124;53.068;18.224;2022-12-29T02:03:35;25.07;;;14.17;;
19923;SDS011;10124;53.068;18.224;2022-12-29T02:08:45;21.83;;;14.30;;
19923;SDS011;10124;53.068;18.224;2022-12-29T02:11:16;23.60;;;14.00;;
19923;SDS011;10124;53.068;18.224;2022-12-29T02:13:44;20.57;;;13.60;;
19923;SDS011;10124;53.068;18.224;2022-12-29T02:22:54;23.17;;;13.03;;
19923;SDS011;10124;53.068;18.224;2022-12-29T02:31:10;20.67;;;12.60;;
19923;SDS011;10124;53.068;18.224;2022-12-29T02:36:28;17.93;;;10.63;;
19923;SDS011;10124;53.068;18.224;2022-12-29T02:44:15;16.30;;;11.80;;
19923;SDS011;10124;53.068;18.224;2022-12-29T02:47:08;20.80;;;12.03;;
19923;SDS011;10124;53.068;18.224;2022-12-29T02:49:49;18.13;;;11.40;;
19923;SDS011;10124;53.068;18.224;2022-12-29T02:52:31;16.67;;;10.50;;
19923;SDS011;10124;53.068;18.224;2022-12-29T02:55:03;17.47;;;11.63;;
19923;SDS011;10124;53.068;18.224;2022-12-29T02:57:35;17.90;;;10.03;;
19923;SDS011;10124;53.068;18.224;2022-12-29T03:00:16;15.93;;;9.87;;
19923;SDS011;10124;53.068;18.224;2022-12-29T03:02:55;16.80;;;9.87;;
19923;SDS011;10124;53.068;18.224;2022-12-29T03:11:02;13.67;;;8.80;;
19923;SDS011;10124;53.068;18.224;2022-12-29T03:17:05;11.80;;;7.90;;
19923;SDS011;10124;53.068;18.224;2022-12-29T03:19:44;14.20;;;8.60;;
19923;SDS011;10124;53.068;18.224;2022-12-29T03:22:17;15.23;;;7.80;;
19923;SDS011;10124;53.068;18.224;2022-12-29T03:25:13;16.30;;;9.03;;
19923;SDS011;10124;53.068;18.224;2022-12-29T03:27:57;12.20;;;8.07;;
19923;SDS011;10124;53.068;18.224;2022-12-29T03:30:30;17.13;;;8.23;;
19923;SDS011;10124;53.068;18.224;2022-12-29T03:33:02;15.50;;;8.97;;
19923;SDS011;10124;53.068;18.224;2022-12-29T03:35:35;17.90;;;9.60;;
19923;SDS011;10124;53.068;18.224;2022-12-29T03:40:51;19.40;;;9.30;;
19923;SDS011;10124;53.068;18.224;2022-12-29T03:43:24;11.80;;;8.23;;
19923;SDS011;10124;53.068;18.224;2022-12-29T03:45:54;15.47;;;9.77;;
19923;SDS011;10124;53.068;18.224;2022-12-29T03:48:22;16.17;;;9.30;;
19923;SDS011;10124;53.068;18.224;2022-12-29T03:50:52;15.40;;;9.20;;
19923;SDS011;10124;53.068;18.224;2022-12-29T03:53:22;12.23;;;8.83;;
19923;SDS011;10124;53.068;18.224;2022-12-29T03:55:50;18.57;;;9.93;;
19923;SDS011;10124;53.068;18.224;2022-12-29T03:58:17;15.97;;;9.77;;
19923;SDS011;10124;53.068;18.224;2022-12-29T04:00:59;14.73;;;9.07;;
19923;SDS011;10124;53.068;18.224;2022-12-29T04:03:30;18.67;;;9.20;;
19923;SDS011;10124;53.068;18.224;2022-12-29T04:05:58;17.77;;;10.13;;
19923;SDS011;10124;53.068;18.224;2022-12-29T04:08:28;16.57;;;10.27;;
19923;SDS011;10124;53.068;18.224;2022-12-29T04:10:57;20.13;;;9.33;;
19923;SDS011;10124;53.068;18.224;2022-12-29T04:13:26;13.33;;;8.87;;
19923;SDS011;10124;53.068;18.224;2022-12-29T04:15:54;17.43;;;10.23;;
19923;SDS011;10124;53.068;18.224;2022-12-29T04:18:22;19.20;;;10.27;;
19923;SDS011;10124;53.068;18.224;2022-12-29T04:20:50;13.77;;;9.30;;
19923;SDS011;10124;53.068;18.224;2022-12-29T04:23:28;14.40;;;9.20;;
19923;SDS011;10124;53.068;18.224;2022-12-29T04:25:57;16.93;;;9.27;;
19923;SDS011;10124;53.068;18.224;2022-12-29T04:28:27;14.97;;;10.07;;
19923;SDS011;10124;53.068;18.224;2022-12-29T04:31:22;12.37;;;9.10;;
19923;SDS011;10124;53.068;18.224;2022-12-29T04:33:50;14.50;;;9.30;;
19923;SDS011;10124;53.068;18.224;2022-12-29T04:36:17;13.57;;;8.93;;
19923;SDS011;10124;53.068;18.224;2022-12-29T04:38:46;14.40;;;10.27;;
19923;SDS011;10124;53.068;18.224;2022-12-29T04:41:14;18.10;;;9.17;;
19923;SDS011;10124;53.068;18.224;2022-12-29T04:43:42;13.50;;;9.23;;
19923;SDS011;10124;53.068;18.224;2022-12-29T04:46:16;18.67;;;10.57;;
19923;SDS011;10124;53.068;18.224;2022-12-29T04:49:04;14.13;;;7.83;;
19923;SDS011;10124;53.068;18.224;2022-12-29T04:51:49;12.53;;;7.40;;
19923;SDS011;10124;53.068;18.224;2022-12-29T04:54:18;15.07;;;8.13;;
19923;SDS011;10124;53.068;18.224;2022-12-29T04:56:54;11.93;;;6.80;;
19923;SDS011;10124;53.068;18.224;2022-12-29T04:59:23;15.27;;;8.37;;
19923;SDS011;10124;53.068;18.224;2022-12-29T05:01:56;14.10;;;8.10;;
19923;SDS011;10124;53.068;18.224;2022-12-29T05:04:23;10.87;;;7.43;;
19923;SDS011;10124;53.068;18.224;2022-12-29T05:06:52;15.30;;;7.93;;
19923;SDS011;10124;53.068;18.224;2022-12-29T05:09:20;10.50;;;6.53;;
19923;SDS011;10124;53.068;18.224;2022-12-29T05:11:48;10.73;;;7.47;;
19923;SDS011;10124;53.068;18.224;2022-12-29T05:14:15;10.13;;;6.90;;
19923;SDS011;10124;53.068;18.224;2022-12-29T05:16:44;12.57;;;7.50;;
19923;SDS011;10124;53.068;18.224;2022-12-29T05:19:13;11.87;;;6.87;;
19923;SDS011;10124;53.068;18.224;2022-12-29T05:21:42;8.47;;;5.73;;
19923;SDS011;10124;53.068;18.224;2022-12-29T05:24:10;13.83;;;6.30;;
19923;SDS011;10124;53.068;18.224;2022-12-29T05:26:38;7.43;;;6.13;;
19923;SDS011;10124;53.068;18.224;2022-12-29T05:29:21;12.17;;;6.23;;
19923;SDS011;10124;53.068;18.224;2022-12-29T05:31:49;11.67;;;5.43;;
19923;SDS011;10124;53.068;18.224;2022-12-29T05:34:18;10.30;;;6.13;;
19923;SDS011;10124;53.068;18.224;2022-12-29T05:36:46;12.60;;;6.30;;
19923;SDS011;10124;53.068;18.224;2022-12-29T05:39:14;10.10;;;6.20;;
19923;SDS011;10124;53.068;18.224;2022-12-29T05:41:48;9.63;;;6.17;;
19923;SDS011;10124;53.068;18.224;2022-12-29T05:44:25;8.73;;;5.73;;
19923;SDS011;10124;53.068;18.224;2022-12-29T05:47:17;8.80;;;5.10;;
19923;SDS011;10124;53.068;18.224;2022-12-29T05:49:54;11.77;;;5.40;;
19923;SDS011;10124;53.068;18.224;2022-12-29T05:55:49;7.67;;;4.87;;
19923;SDS011;10124;53.068;18.224;2022-12-29T05:58:19;6.40;;;4.73;;
19923;SDS011;10124;53.068;18.224;2022-12-29T06:00:47;9.10;;;5.40;;
19923;SDS011;10124;53.068;18.224;2022-12-29T06:03:15;7.13;;;4.60;;
19923;SDS011;10124;53.068;18.224;2022-12-29T06:05:46;7.73;;;4.87;;
19923;SDS011;10124;53.068;18.224;2022-12-29T06:08:15;7.50;;;4.97;;
19923;SDS011;10124;53.068;18.224;2022-12-29T06:10:43;7.00;;;4.97;;
19923;SDS011;10124;53.068;18.224;2022-12-29T06:13:11;13.40;;;4.87;;
19923;SDS011;10124;53.068;18.224;2022-12-29T06:15:42;8.30;;;5.10;;
19923;SDS011;10124;53.068;18.224;2022-12-29T06:18:11;9.83;;;4.97;;
19923;SDS011;10124;53.068;18.224;2022-12-29T06:20:45;8.37;;;4.77;;
19923;SDS011;10124;53.068;18.224;2022-12-29T06:23:16;11.07;;;5.00;;
19923;SDS011;10124;53.068;18.224;2022-12-29T06:25:46;7.53;;;4.50;;
19923;SDS011;10124;53.068;18.224;2022-12-29T06:28:16;12.87;;;5.37;;
19923;SDS011;10124;53.068;18.224;2022-12-29T06:30:44;7.10;;;4.53;;
19923;SDS011;10124;53.068;18.224;2022-12-29T06:33:13;6.97;;;4.20;;
19923;SDS011;10124;53.068;18.224;2022-12-29T06:35:41;10.60;;;4.93;;
19923;SDS011;10124;53.068;18.224;2022-12-29T06:38:09;8.23;;;4.63;;
19923;SDS011;10124;53.068;18.224;2022-12-29T06:40:37;8.10;;;5.07;;
19923;SDS011;10124;53.068;18.224;2022-12-29T06:43:06;9.13;;;4.47;;
19923;SDS011;10124;53.068;18.224;2022-12-29T06:45:52;7.03;;;4.40;;
19923;SDS011;10124;53.068;18.224;2022-12-29T06:48:21;10.70;;;4.50;;
19923;SDS011;10124;53.068;18.224;2022-12-29T06:50:49;5.90;;;4.07;;
19923;SDS011;10124;53.068;18.224;2022-12-29T06:53:17;9.50;;;4.40;;
19923;SDS011;10124;53.068;18.224;2022-12-29T06:55:45;8.57;;;4.60;;
19923;SDS011;10124;53.068;18.224;2022-12-29T06:58:13;7.50;;;4.67;;
19923;SDS011;10124;53.068;18.224;2022-12-29T07:00:41;6.67;;;3.27;;
19923;SDS011;10124;53.068;18.224;2022-12-29T07:03:09;6.63;;;3.70;;
19923;SDS011;10124;53.068;18.224;2022-12-29T07:05:37;8.07;;;4.47;;
19923;SDS011;10124;53.068;18.224;2022-12-29T07:08:05;8.00;;;4.33;;
19923;SDS011;10124;53.068;18.224;2022-12-29T07:10:33;7.23;;;4.20;;
19923;SDS011;10124;53.068;18.224;2022-12-29T07:13:01;11.30;;;5.60;;
19923;SDS011;10124;53.068;18.224;2022-12-29T07:15:29;22.23;;;10.73;;
19923;SDS011;10124;53.068;18.224;2022-12-29T07:17:57;21.67;;;18.50;;
19923;SDS011;10124;53.068;18.224;2022-12-29T07:20:25;7.83;;;5.37;;
19923;SDS011;10124;53.068;18.224;2022-12-29T07:22:53;7.00;;;3.90;;
19923;SDS011;10124;53.068;18.224;2022-12-29T07:25:21;6.53;;;3.73;;
19923;SDS011;10124;53.068;18.224;2022-12-29T07:27:49;8.93;;;4.70;;
19923;SDS011;10124;53.068;18.224;2022-12-29T07:30:17;5.23;;;4.00;;
19923;SDS011;10124;53.068;18.224;2022-12-29T07:32:45;6.27;;;4.03;;
19923;SDS011;10124;53.068;18.224;2022-12-29T07:35:13;9.43;;;4.20;;
19923;SDS011;10124;53.068;18.224;2022-12-29T07:37:41;12.93;;;4.03;;
19923;SDS011;10124;53.068;18.224;2022-12-29T07:40:09;5.03;;;3.60;;
19923;SDS011;10124;53.068;18.224;2022-12-29T07:42:37;6.27;;;4.07;;
19923;SDS011;10124;53.068;18.224;2022-12-29T07:45:08;9.47;;;4.37;;
19923;SDS011;10124;53.068;18.224;2022-12-29T07:48:02;5.30;;;3.53;;
19923;SDS011;10124;53.068;18.224;2022-12-29T07:50:30;5.40;;;3.50;;
19923;SDS011;10124;53.068;18.224;2022-12-29T07:52:58;7.13;;;4.00;;
19923;SDS011;10124;53.068;18.224;2022-12-29T07:55:26;8.87;;;3.77;;
19923;SDS011;10124;53.068;18.224;2022-12-29T07:57:55;5.47;;;3.97;;
19923;SDS011;10124;53.068;18.224;2022-12-29T08:00:22;7.77;;;3.80;;
19923;SDS011;10124;53.068;18.224;2022-12-29T08:02:51;5.30;;;3.70;;
19923;SDS011;10124;53.068;18.224;2022-12-29T08:05:19;7.53;;;3.50;;
19923;SDS011;10124;53.068;18.224;2022-12-29T08:07:47;6.70;;;4.00;;
19923;SDS011;10124;53.068;18.224;2022-12-29T08:10:15;10.37;;;3.70;;
19923;SDS011;10124;53.068;18.224;2022-12-29T08:12:45;7.50;;;4.17;;
19923;SDS011;10124;53.068;18.224;2022-12-29T08:15:13;8.87;;;4.17;;
19923;SDS011;10124;53.068;18.224;2022-12-29T08:17:41;7.93;;;3.67;;
19923;SDS011;10124;53.068;18.224;2022-12-29T08:20:09;4.73;;;3.27;;
19923;SDS011;10124;53.068;18.224;2022-12-29T08:22:39;5.30;;;3.23;;
19923;SDS011;10124;53.068;18.224;2022-12-29T08:25:07;7.00;;;3.77;;
19923;SDS011;10124;53.068;18.224;2022-12-29T08:27:36;5.00;;;3.27;;
19923;SDS011;10124;53.068;18.224;2022-12-29T08:30:04;5.97;;;4.00;;
19923;SDS011;10124;53.068;18.224;2022-12-29T08:32:33;4.40;;;3.27;;
19923;SDS011;10124;53.068;18.224;2022-12-29T08:35:01;10.50;;;4.03;;
19923;SDS011;10124;53.068;18.224;2022-12-29T08:37:29;6.80;;;3.93;;
19923;SDS011;10124;53.068;18.224;2022-12-29T08:39:57;8.13;;;4.13;;
19923;SDS011;10124;53.068;18.224;2022-12-29T08:42:27;6.00;;;3.60;;
19923;SDS011;10124;53.068;18.224;2022-12-29T08:44:58;7.83;;;4.70;;
19923;SDS011;10124;53.068;18.224;2022-12-29T08:47:26;7.87;;;3.83;;
19923;SDS011;10124;53.068;18.224;2022-12-29T08:49:54;5.77;;;3.73;;
19923;SDS011;10124;53.068;18.224;2022-12-29T08:52:22;5.67;;;3.77;;
19923;SDS011;10124;53.068;18.224;2022-12-29T08:54:50;5.63;;;3.60;;
19923;SDS011;10124;53.068;18.224;2022-12-29T08:57:19;6.80;;;3.93;;
19923;SDS011;10124;53.068;18.224;2022-12-29T09:00:01;6.93;;;4.23;;
19923;SDS011;10124;53.068;18.224;2022-12-29T09:02:30;7.73;;;4.07;;
19923;SDS011;10124;53.068;18.224;2022-12-29T09:05:00;6.07;;;4.07;;
19923;SDS011;10124;53.068;18.224;2022-12-29T09:07:28;7.93;;;4.30;;
19923;SDS011;10124;53.068;18.224;2022-12-29T09:09:56;7.10;;;4.07;;
19923;SDS011;10124;53.068;18.224;2022-12-29T09:12:23;5.97;;;3.67;;
19923;SDS011;10124;53.068;18.224;2022-12-29T09:14:52;6.37;;;4.33;;
19923;SDS011;10124;53.068;18.224;2022-12-29T09:17:20;7.50;;;3.90;;
19923;SDS011;10124;53.068;18.224;2022-12-29T09:20:07;9.00;;;5.20;;
19923;SDS011;10124;53.068;18.224;2022-12-29T09:22:36;12.53;;;5.37;;
19923;SDS011;10124;53.068;18.224;2022-12-29T09:25:05;8.17;;;4.60;;
19923;SDS011;10124;53.068;18.224;2022-12-29T09:27:34;6.77;;;4.50;;
19923;SDS011;10124;53.068;18.224;2022-12-29T09:30:06;8.90;;;4.93;;
19923;SDS011;10124;53.068;18.224;2022-12-29T09:32:35;10.43;;;4.20;;
19923;SDS011;10124;53.068;18.224;2022-12-29T09:35:11;7.43;;;4.27;;
19923;SDS011;10124;53.068;18.224;2022-12-29T09:37:39;6.47;;;4.27;;
19923;SDS011;10124;53.068;18.224;2022-12-29T09:40:13;9.70;;;5.10;;
19923;SDS011;10124;53.068;18.224;2022-12-29T09:52:11;10.23;;;6.00;;
19923;SDS011;10124;53.068;18.224;2022-12-29T09:54:49;8.40;;;4.60;;
19923;SDS011;10124;53.068;18.224;2022-12-29T09:57:38;8.27;;;4.53;;
19923;SDS011;10124;53.068;18.224;2022-12-29T10:00:20;6.97;;;4.07;;
19923;SDS011;10124;53.068;18.224;2022-12-29T10:10:53;6.27;;;3.90;;
19923;SDS011;10124;53.068;18.224;2022-12-29T10:24:39;6.77;;;4.47;;
19923;SDS011;10124;53.068;18.224;2022-12-29T10:27:12;7.20;;;4.53;;
19923;SDS011;10124;53.068;18.224;2022-12-29T10:29:45;7.67;;;4.33;;
19923;SDS011;10124;53.068;18.224;2022-12-29T10:32:38;6.80;;;4.10;;
19923;SDS011;10124;53.068;18.224;2022-12-29T10:35:23;5.90;;;3.80;;
19923;SDS011;10124;53.068;18.224;2022-12-29T10:38:22;6.53;;;3.77;;
19923;SDS011;10124;53.068;18.224;2022-12-29T10:43:45;8.13;;;4.27;;
19923;SDS011;10124;53.068;18.224;2022-12-29T10:46:19;8.30;;;4.20;;
19923;SDS011;10124;53.068;18.224;2022-12-29T10:48:54;6.43;;;3.73;;
19923;SDS011;10124;53.068;18.224;2022-12-29T10:51:32;8.17;;;4.67;;
19923;SDS011;10124;53.068;18.224;2022-12-29T10:54:05;10.00;;;4.53;;
19923;SDS011;10124;53.068;18.224;2022-12-29T10:56:39;10.43;;;4.00;;
19923;SDS011;10124;53.068;18.224;2022-12-29T10:59:21;8.83;;;4.03;;
19923;SDS011;10124;53.068;18.224;2022-12-29T11:07:46;9.50;;;4.37;;
19923;SDS011;10124;53.068;18.224;2022-12-29T11:13:04;9.93;;;4.07;;
19923;SDS011;10124;53.068;18.224;2022-12-29T11:15:43;7.07;;;4.40;;
19923;SDS011;10124;53.068;18.224;2022-12-29T11:18:26;10.10;;;4.60;;
19923;SDS011;10124;53.068;18.224;2022-12-29T11:21:05;8.80;;;4.47;;
19923;SDS011;10124;53.068;18.224;2022-12-29T11:23:57;9.17;;;4.80;;
19923;SDS011;10124;53.068;18.224;2022-12-29T11:26:33;7.40;;;4.97;;
19923;SDS011;10124;53.068;18.224;2022-12-29T11:31:42;11.73;;;5.87;;
19923;SDS011;10124;53.068;18.224;2022-12-29T11:34:19;7.30;;;4.30;;
19923;SDS011;10124;53.068;18.224;2022-12-29T11:36:48;6.93;;;3.77;;
19923;SDS011;10124;53.068;18.224;2022-12-29T11:41:57;7.47;;;4.50;;
19923;SDS011;10124;53.068;18.224;2022-12-29T11:44:26;7.13;;;3.83;;
19923;SDS011;10124;53.068;18.224;2022-12-29T11:46:54;11.03;;;4.50;;
19923;SDS011;10124;53.068;18.224;2022-12-29T11:49:23;13.60;;;4.60;;
19923;SDS011;10124;53.068;18.224;2022-12-29T11:51:53;8.60;;;4.17;;
19923;SDS011;10124;53.068;18.224;2022-12-29T11:56:58;7.40;;;4.10;;
19923;SDS011;10124;53.068;18.224;2022-12-29T11:59:58;7.83;;;3.73;;
19923;SDS011;10124;53.068;18.224;2022-12-29T12:10:53;7.40;;;3.97;;
19923;SDS011;10124;53.068;18.224;2022-12-29T12:13:29;9.73;;;4.40;;
19923;SDS011;10124;53.068;18.224;2022-12-29T12:18:40;5.72;;;3.47;;
19923;SDS011;10124;53.068;18.224;2022-12-29T12:26:43;8.95;;;3.28;;
19923;SDS011;10124;53.068;18.224;2022-12-29T12:29:31;11.07;;;4.13;;
19923;SDS011;10124;53.068;18.224;2022-12-29T12:32:11;7.68;;;3.85;;
19923;SDS011;10124;53.068;18.224;2022-12-29T12:34:48;5.28;;;3.65;;
19923;SDS011;10124;53.068;18.224;2022-12-29T12:51:02;5.90;;;3.45;;
19923;SDS011;10124;53.068;18.224;2022-12-29T12:57:00;8.23;;;3.47;;
19923;SDS011;10124;53.068;18.224;2022-12-29T13:00:12;4.82;;;3.22;;
19923;SDS011;10124;53.068;18.224;2022-12-29T13:05:43;6.38;;;3.58;;
19923;SDS011;10124;53.068;18.224;2022-12-29T13:08:39;5.18;;;3.08;;
19923;SDS011;10124;53.068;18.224;2022-12-29T13:16:22;6.93;;;3.47;;
19923;SDS011;10124;53.068;18.224;2022-12-29T13:30:10;6.00;;;3.27;;
19923;SDS011;10124;53.068;18.224;2022-12-29T13:38:11;6.43;;;3.30;;
19923;SDS011;10124;53.068;18.224;2022-12-29T13:41:08;6.20;;;3.67;;
19923;SDS011;10124;53.068;18.224;2022-12-29T13:43:52;7.93;;;3.90;;
19923;SDS011;10124;53.068;18.224;2022-12-29T13:46:27;8.77;;;3.90;;
19923;SDS011;10124;53.068;18.224;2022-12-29T13:48:59;14.27;;;4.10;;
19923;SDS011;10124;53.068;18.224;2022-12-29T13:51:31;5.93;;;3.87;;
19923;SDS011;10124;53.068;18.224;2022-12-29T13:54:05;6.63;;;3.20;;
19923;SDS011;10124;53.068;18.224;2022-12-29T13:56:46;13.57;;;4.50;;
19923;SDS011;10124;53.068;18.224;2022-12-29T14:07:26;6.30;;;4.03;;
19923;SDS011;10124;53.068;18.224;2022-12-29T14:09:55;7.17;;;4.10;;
19923;SDS011;10124;53.068;18.224;2022-12-29T14:12:31;8.03;;;4.20;;
19923;SDS011;10124;53.068;18.224;2022-12-29T14:17:43;7.97;;;3.60;;
19923;SDS011;10124;53.068;18.224;2022-12-29T14:20:17;6.90;;;4.07;;
19923;SDS011;10124;53.068;18.224;2022-12-29T14:22:59;9.93;;;4.23;;
19923;SDS011;10124;53.068;18.224;2022-12-29T14:25:52;10.20;;;3.83;;
19923;SDS011;10124;53.068;18.224;2022-12-29T14:31:02;9.03;;;3.50;;
19923;SDS011;10124;53.068;18.224;2022-12-29T14:36:34;5.77;;;3.50;;
19923;SDS011;10124;53.068;18.224;2022-12-29T14:39:04;5.47;;;3.30;;
19923;SDS011;10124;53.068;18.224;2022-12-29T14:44:33;6.57;;;2.97;;
19923;SDS011;10124;53.068;18.224;2022-12-29T14:47:05;9.57;;;3.47;;
19923;SDS011;10124;53.068;18.224;2022-12-29T14:49:42;7.57;;;4.13;;
19923;SDS011;10124;53.068;18.224;2022-12-29T14:52:17;7.53;;;3.33;;
19923;SDS011;10124;53.068;18.224;2022-12-29T14:54:52;5.27;;;3.53;;
19923;SDS011;10124;53.068;18.224;2022-12-29T14:57:38;5.20;;;3.07;;
19923;SDS011;10124;53.068;18.224;2022-12-29T15:02:45;5.53;;;3.10;;
19923;SDS011;10124;53.068;18.224;2022-12-29T15:08:05;11.00;;;3.83;;
19923;SDS011;10124;53.068;18.224;2022-12-29T15:10:36;7.13;;;3.77;;
19923;SDS011;10124;53.068;18.224;2022-12-29T15:13:16;9.77;;;3.60;;
19923;SDS011;10124;53.068;18.224;2022-12-29T15:15:48;9.80;;;3.70;;
19923;SDS011;10124;53.068;18.224;2022-12-29T15:18:26;6.63;;;3.17;;
19923;SDS011;10124;53.068;18.224;2022-12-29T15:21:04;13.13;;;3.47;;
19923;SDS011;10124;53.068;18.224;2022-12-29T15:23:34;5.57;;;3.20;;
19923;SDS011;10124;53.068;18.224;2022-12-29T15:26:05;8.50;;;3.93;;
19923;SDS011;10124;53.068;18.224;2022-12-29T15:28:43;12.07;;;4.23;;
19923;SDS011;10124;53.068;18.224;2022-12-29T15:31:16;10.17;;;4.57;;
19923;SDS011;10124;53.068;18.224;2022-12-29T15:34:03;10.60;;;4.83;;
19923;SDS011;10124;53.068;18.224;2022-12-29T15:36:38;8.50;;;5.00;;
19923;SDS011;10124;53.068;18.224;2022-12-29T15:39:18;13.03;;;6.00;;
19923;SDS011;10124;53.068;18.224;2022-12-29T15:41:59;10.40;;;6.13;;
19923;SDS011;10124;53.068;18.224;2022-12-29T15:44:42;12.60;;;6.60;;
19923;SDS011;10124;53.068;18.224;2022-12-29T15:47:18;11.17;;;5.77;;
19923;SDS011;10124;53.068;18.224;2022-12-29T15:49:48;9.57;;;5.10;;
19923;SDS011;10124;53.068;18.224;2022-12-29T15:52:20;11.40;;;7.37;;
19923;SDS011;10124;53.068;18.224;2022-12-29T15:54:50;12.77;;;4.90;;
19923;SDS011;10124;53.068;18.224;2022-12-29T15:57:30;8.97;;;4.90;;
19923;SDS011;10124;53.068;18.224;2022-12-29T16:00:20;9.20;;;4.90;;
19923;SDS011;10124;53.068;18.224;2022-12-29T16:02:55;15.00;;;6.70;;
19923;SDS011;10124;53.068;18.224;2022-12-29T16:05:37;16.20;;;7.43;;
19923;SDS011;10124;53.068;18.224;2022-12-29T16:11:03;11.13;;;6.67;;
19923;SDS011;10124;53.068;18.224;2022-12-29T16:13:49;13.37;;;7.20;;
19923;SDS011;10124;53.068;18.224;2022-12-29T16:16:21;12.30;;;7.13;;
19923;SDS011;10124;53.068;18.224;2022-12-29T16:19:41;15.40;;;7.83;;
19923;SDS011;10124;53.068;18.224;2022-12-29T16:22:21;16.37;;;7.13;;
19923;SDS011;10124;53.068;18.224;2022-12-29T16:24:59;14.20;;;7.83;;
19923;SDS011;10124;53.068;18.224;2022-12-29T16:27:36;20.17;;;8.47;;
19923;SDS011;10124;53.068;18.224;2022-12-29T16:30:25;20.00;;;9.93;;
19923;SDS011;10124;53.068;18.224;2022-12-29T16:33:01;18.47;;;8.80;;
19923;SDS011;10124;53.068;18.224;2022-12-29T16:35:39;24.57;;;12.20;;
19923;SDS011;10124;53.068;18.224;2022-12-29T16:40:54;18.17;;;8.63;;
19923;SDS011;10124;53.068;18.224;2022-12-29T16:43:26;17.90;;;9.20;;
19923;SDS011;10124;53.068;18.224;2022-12-29T16:48:27;21.87;;;9.00;;
19923;SDS011;10124;53.068;18.224;2022-12-29T16:51:04;11.17;;;7.07;;
19923;SDS011;10124;53.068;18.224;2022-12-29T16:53:42;12.57;;;6.53;;
19923;SDS011;10124;53.068;18.224;2022-12-29T16:56:21;18.67;;;8.57;;
19923;SDS011;10124;53.068;18.224;2022-12-29T16:59:04;19.67;;;8.77;;
19923;SDS011;10124;53.068;18.224;2022-12-29T17:01:37;16.43;;;8.50;;
19923;SDS011;10124;53.068;18.224;2022-12-29T17:04:08;12.93;;;8.13;;
19923;SDS011;10124;53.068;18.224;2022-12-29T17:06:37;39.87;;;16.67;;
19923;SDS011;10124;53.068;18.224;2022-12-29T17:09:26;22.67;;;8.60;;
19923;SDS011;10124;53.068;18.224;2022-12-29T17:11:56;19.40;;;9.40;;
19923;SDS011;10124;53.068;18.224;2022-12-29T17:14:47;17.93;;;10.33;;
19923;SDS011;10124;53.068;18.224;2022-12-29T17:18:03;25.37;;;9.93;;
19923;SDS011;10124;53.068;18.224;2022-12-29T17:22:47;19.37;;;9.03;;
19923;SDS011;10124;53.068;18.224;2022-12-29T17:25:17;14.83;;;7.90;;
19923;SDS011;10124;53.068;18.224;2022-12-29T17:30:21;18.63;;;7.27;;
19923;SDS011;10124;53.068;18.224;2022-12-29T17:33:06;20.20;;;10.47;;
19923;SDS011;10124;53.068;18.224;2022-12-29T17:35:39;19.47;;;9.43;;
19923;SDS011;10124;53.068;18.224;2022-12-29T17:38:17;19.10;;;8.77;;
19923;SDS011;10124;53.068;18.224;2022-12-29T17:40:48;14.47;;;7.33;;
19923;SDS011;10124;53.068;18.224;2022-12-29T17:43:16;16.77;;;7.67;;
19923;SDS011;10124;53.068;18.224;2022-12-29T17:45:46;20.40;;;8.47;;
19923;SDS011;10124;53.068;18.224;2022-12-29T17:48:18;19.70;;;9.57;;
19923;SDS011;10124;53.068;18.224;2022-12-29T17:50:47;17.73;;;8.13;;
19923;SDS011;10124;53.068;18.224;2022-12-29T17:53:22;18.43;;;8.33;;
19923;SDS011;10124;53.068;18.224;2022-12-29T17:55:51;16.83;;;9.17;;
19923;SDS011;10124;53.068;18.224;2022-12-29T17:58:21;14.07;;;8.13;;
19923;SDS011;10124;53.068;18.224;2022-12-29T18:00:53;14.23;;;7.47;;
19923;SDS011;10124;53.068;18.224;2022-12-29T18:06:05;12.53;;;6.90;;
19923;SDS011;10124;53.068;18.224;2022-12-29T18:08:35;15.00;;;6.33;;
19923;SDS011;10124;53.068;18.224;2022-12-29T18:11:24;10.13;;;5.63;;
19923;SDS011;10124;53.068;18.224;2022-12-29T18:13:53;14.70;;;6.40;;
19923;SDS011;10124;53.068;18.224;2022-12-29T18:16:21;11.33;;;5.40;;